As Valentia — A8SO8 — position and weather

sailwx.info

Track history (hours):
 
Tides and Currents Weather Stations Pressure Air Temp Water Temp Dewpoint Dewpoint Depression Visibility Wind Speed Wind Dir Waves Ship Positions

As Valentia

Last reported at 2017-Mar-24 03:31 UTC. Time now 2017-Mar-27 06:39 UTC.
Position N 32°01' E 120°25'.

Length 190 m; draft 10.8 m.

Type: Cargo ship. MMSI: 636091770.

Date/timePositionNaut miles runAvg speedWind from/ knotsBaromVisibWave heightAir tempDewpointWater temp
2017-Mar-24 03:31N 32°01' E 120°25'39 9.8
2017-Mar-23 23:32N 31°44' E 121°06'1211.6
2017-Mar-23 22:33N 31°37' E 121°17'2 2.1
2017-Mar-23 21:32N 31°36' E 121°19'0 0.0
2017-Mar-23 20:26N 31°36' E 121°19'0 0.0
2017-Mar-23 19:32N 31°36' E 121°19'0 0.0
2017-Mar-23 18:32N 31°36' E 121°19'0 0.2
2017-Mar-23 17:33N 31°35' E 121°19'9 8.6
2017-Mar-23 16:33N 31°29' E 121°26'10 9.6
2017-Mar-23 15:33N 31°23' E 121°35'10 9.8
2017-Mar-23 14:32N 31°19' E 121°45'1010.1
2017-Mar-23 13:33N 31°15' E 121°56'1010.2
2017-Mar-23 12:33N 31°13' E 122°07'9 9.4
2017-Mar-23 11:33N 31°07' E 122°16'  
Track history (hours):
 
Tides and Currents Weather Stations Pressure Air Temp Water Temp Dewpoint Dewpoint Depression Visibility Wind Speed Wind Dir Waves Ship Positions

As Valentia

Last reported at 2017-Mar-24 03:31 UTC. Time now 2017-Mar-27 06:40 UTC.
Position N 32°01' E 120°25'.

Length 190 m; draft 10.8 m.

Type: Cargo ship. MMSI: 636091770.

Date/timePositionNaut miles runAvg speedWind from/ knotsBaromVisibWave heightAir tempDewpointWater temp
2017-Mar-24 03:31N 32°01' E 120°25'39 9.8
2017-Mar-23 23:32N 31°44' E 121°06'1211.6
2017-Mar-23 22:33N 31°37' E 121°17'2 2.1
2017-Mar-23 21:32N 31°36' E 121°19'0 0.0
2017-Mar-23 20:26N 31°36' E 121°19'0 0.0
2017-Mar-23 19:32N 31°36' E 121°19'0 0.0
2017-Mar-23 18:32N 31°36' E 121°19'0 0.2
2017-Mar-23 17:33N 31°35' E 121°19'9 8.6
2017-Mar-23 16:33N 31°29' E 121°26'10 9.6
2017-Mar-23 15:33N 31°23' E 121°35'10 9.8
2017-Mar-23 14:32N 31°19' E 121°45'1010.1
2017-Mar-23 13:33N 31°15' E 121°56'1010.2
2017-Mar-23 12:33N 31°13' E 122°07'9 9.4
2017-Mar-23 11:33N 31°07' E 122°16'  

Dump ship's entire track history